Time;durP1;ratioP1;P1;durP2;ratioP2;P2;SDS_P1;SDS_P2;PMS_P1;PMS_P2;Temp;Humidity;BMP_temperature;BMP_pressure;BME280_temperature;BME280_humidity;BME280_pressure;Samples;Min_cycle;Max_cycle;Signal;HPM_P1;HPM_P2
2021/03/24 00:00:32;;;;;;;59.50;38.03;;;;;;;;;;5086444;28;20074;-78
2021/03/24 00:02:58;;;;;;;54.70;36.55;;;;;;;;;;5079726;28;20037;-77
2021/03/24 00:05:38;;;;;;;53.75;36.97;;;;;;;;;;5080751;28;20036;-78
2021/03/24 00:08:05;;;;;;;57.90;37.47;;;;;;;;;;5080712;28;20044;-78
2021/03/24 00:10:31;;;;;;;57.30;36.28;;;;;;;;;;5062634;28;20096;-78
2021/03/24 00:12:58;;;;;;;62.95;37.85;;;;;;;;;;5081586;28;20075;-78
2021/03/24 00:15:24;;;;;;;59.47;37.95;;;;;;;;;;5081086;28;20063;-78
2021/03/24 00:17:50;;;;;;;56.47;36.00;;;;;;;;;;5091676;28;20115;-78
2021/03/24 00:20:21;;;;;;;57.38;35.38;;;;;;;;;;5101848;28;20040;-78
2021/03/24 00:22:46;;;;;;;57.35;34.92;;;;;;;;;;5102469;28;20466;-78
2021/03/24 00:25:15;;;;;;;48.00;32.53;;;;;;;;;;5102972;28;20040;-78
2021/03/24 00:27:42;;;;;;;51.38;32.78;;;;;;;;;;5102998;28;20416;-77
2021/03/24 00:30:09;;;;;;;47.85;33.03;;;;;;;;;;5103671;28;20032;-77
2021/03/24 00:32:35;;;;;;;53.50;32.85;;;;;;;;;;5103664;28;20068;-78
2021/03/24 00:35:00;;;;;;;56.45;37.15;;;;;;;;;;5086071;28;20036;-78
2021/03/24 00:37:25;;;;;;;50.08;34.17;;;;;;;;;;5103993;28;20035;-78
2021/03/24 00:39:51;;;;;;;49.80;33.92;;;;;;;;;;5104700;28;20032;-78
2021/03/24 00:42:16;;;;;;;48.97;31.55;;;;;;;;;;5104023;28;20032;-77
2021/03/24 00:44:42;;;;;;;48.58;32.08;;;;;;;;;;5104389;28;20356;-77
2021/03/24 00:47:07;;;;;;;54.13;32.92;;;;;;;;;;5103526;28;20043;-78
2021/03/24 00:49:33;;;;;;;55.65;33.75;;;;;;;;;;5104402;28;20040;-78
2021/03/24 00:51:58;;;;;;;57.95;35.70;;;;;;;;;;5105203;28;20023;-77
2021/03/24 00:54:24;;;;;;;57.53;36.95;;;;;;;;;;5104773;28;20036;-77
2021/03/24 00:56:49;;;;;;;66.88;41.75;;;;;;;;;;5088195;28;20036;-77
2021/03/24 00:59:15;;;;;;;61.83;40.40;;;;;;;;;;5105175;28;20052;-77
2021/03/24 01:01:41;;;;;;;60.03;38.95;;;;;;;;;;5105615;28;20032;-77
2021/03/24 01:04:07;;;;;;;57.25;37.70;;;;;;;;;;5105445;28;20113;-77
2021/03/24 01:06:32;;;;;;;56.15;36.83;;;;;;;;;;5106257;28;20036;-78
2021/03/24 01:08:59;;;;;;;60.65;39.95;;;;;;;;;;5089010;28;20104;-78
2021/03/24 01:11:25;;;;;;;56.08;36.85;;;;;;;;;;5105692;28;20079;-77
2021/03/24 01:13:50;;;;;;;54.13;36.28;;;;;;;;;;5104454;28;20036;-77
2021/03/24 01:16:16;;;;;;;61.42;35.30;;;;;;;;;;5105192;28;20052;-78
2021/03/24 01:18:42;;;;;;;52.58;34.20;;;;;;;;;;5106011;28;20047;-77
2021/03/24 01:21:07;;;;;;;51.33;33.22;;;;;;;;;;5089724;28;20111;-77
2021/03/24 01:23:33;;;;;;;57.97;35.05;;;;;;;;;;5107275;28;20035;-78
2021/03/24 01:25:59;;;;;;;62.60;37.85;;;;;;;;;;5105769;28;20043;-77
2021/03/24 01:28:27;;;;;;;58.83;38.05;;;;;;;;;;5106616;28;20036;-77
2021/03/24 01:30:54;;;;;;;64.93;40.40;;;;;;;;;;5107378;28;20056;-77
2021/03/24 01:33:20;;;;;;;61.92;39.00;;;;;;;;;;5107407;28;20099;-78
2021/03/24 01:35:45;;;;;;;65.82;41.15;;;;;;;;;;5104331;28;20067;-78
2021/03/24 01:38:11;;;;;;;61.63;38.55;;;;;;;;;;5085775;28;20035;-78
2021/03/24 01:40:42;;;;;;;76.40;42.15;;;;;;;;;;5083040;28;20047;-77
2021/03/24 01:43:17;;;;;;;59.92;39.00;;;;;;;;;;5081097;28;20093;-78
2021/03/24 01:45:45;;;;;;;58.75;37.42;;;;;;;;;;5103284;28;20056;-77
2021/03/24 01:48:15;;;;;;;63.92;37.55;;;;;;;;;;5105449;28;20028;-78
2021/03/24 01:50:40;;;;;;;53.72;34.80;;;;;;;;;;5082004;28;20044;-78
2021/03/24 01:53:06;;;;;;;56.88;34.85;;;;;;;;;;5081996;28;20046;-76
2021/03/24 01:55:31;;;;;;;58.72;34.00;;;;;;;;;;5101071;28;20131;-77
2021/03/24 01:57:57;;;;;;;47.35;31.05;;;;;;;;;;5100315;28;20040;-77
2021/03/24 02:00:36;;;;;;;49.78;32.58;;;;;;;;;;5100319;28;20069;-77
2021/03/24 02:03:05;;;;;;;55.10;34.45;;;;;;;;;;5100463;28;20036;-77
2021/03/24 02:05:31;;;;;;;54.45;33.22;;;;;;;;;;5101003;28;20060;-77
2021/03/24 02:08:23;;;;;;;62.78;38.05;;;;;;;;;;5101180;28;20116;-77
2021/03/24 02:10:56;;;;;;;55.47;36.20;;;;;;;;;;5101307;28;20058;-78
2021/03/24 02:13:23;;;;;;;58.22;37.50;;;;;;;;;;5101266;28;20032;-77
2021/03/24 02:16:18;;;;;;;70.35;42.30;;;;;;;;;;5101506;28;20044;-77
2021/03/24 02:18:46;;;;;;;74.32;45.55;;;;;;;;;;5099367;28;20054;-77
2021/03/24 02:21:27;;;;;;;73.65;42.58;;;;;;;;;;5105809;28;20253;-77
2021/03/24 02:24:08;;;;;;;71.18;41.00;;;;;;;;;;5106814;28;20054;-77
2021/03/24 02:26:52;;;;;;;74.47;42.47;;;;;;;;;;5104416;28;20043;-77
2021/03/24 02:29:21;;;;;;;80.72;43.22;;;;;;;;;;5088402;28;20048;-77
2021/03/24 02:31:49;;;;;;;82.38;43.88;;;;;;;;;;5106548;28;20028;-78
2021/03/24 02:34:18;;;;;;;83.00;45.60;;;;;;;;;;5098891;28;20393;-77
2021/03/24 02:36:44;;;;;;;70.75;43.63;;;;;;;;;;5100347;28;20084;-76
2021/03/24 02:39:13;;;;;;;152.52;43.17;;;;;;;;;;5098005;28;20542;-77
2021/03/24 02:41:41;;;;;;;71.18;39.65;;;;;;;;;;5095516;28;20051;-77
2021/03/24 02:44:07;;;;;;;71.72;43.72;;;;;;;;;;5077945;28;20036;-77
2021/03/24 02:46:34;;;;;;;77.00;44.78;;;;;;;;;;5096267;28;20098;-78
2021/03/24 02:49:03;;;;;;;79.00;45.80;;;;;;;;;;5096750;28;20131;-78
2021/03/24 02:51:29;;;;;;;87.85;44.47;;;;;;;;;;5078864;28;20043;-77
2021/03/24 02:53:54;;;;;;;76.93;45.20;;;;;;;;;;5096960;28;20032;-77
2021/03/24 02:56:20;;;;;;;87.53;45.38;;;;;;;;;;5078790;28;20043;-77
2021/03/24 02:58:46;;;;;;;74.72;43.17;;;;;;;;;;5097454;28;20113;-78
2021/03/24 03:01:17;;;;;;;77.53;43.80;;;;;;;;;;5097653;28;20071;-77
2021/03/24 03:03:49;;;;;;;79.45;45.22;;;;;;;;;;5104959;28;20031;-77
2021/03/24 03:06:17;;;;;;;69.75;42.30;;;;;;;;;;5108524;28;20039;-77
2021/03/24 03:08:51;;;;;;;73.28;43.42;;;;;;;;;;5110096;28;20161;-77
2021/03/24 03:11:22;;;;;;;79.28;45.38;;;;;;;;;;5108570;28;20043;-77
2021/03/24 03:14:07;;;;;;;82.18;45.28;;;;;;;;;;5107176;28;20036;-77
2021/03/24 03:16:42;;;;;;;93.53;47.92;;;;;;;;;;5106148;28;20107;-77
2021/03/24 03:19:21;;;;;;;105.57;52.47;;;;;;;;;;5101555;28;20028;-77
2021/03/24 03:21:58;;;;;;;107.03;51.15;;;;;;;;;;5100025;28;20032;-77
2021/03/24 03:24:26;;;;;;;82.97;47.80;;;;;;;;;;5099617;28;20036;-77
2021/03/24 03:26:56;;;;;;;119.45;51.85;;;;;;;;;;5099048;28;20024;-77
2021/03/24 03:29:23;;;;;;;173.27;52.35;;;;;;;;;;5099601;28;20046;-77
2021/03/24 03:31:51;;;;;;;82.13;48.75;;;;;;;;;;5099726;28;20040;-77
2021/03/24 03:34:22;;;;;;;94.63;50.55;;;;;;;;;;5082984;28;20048;-77
2021/03/24 03:36:52;;;;;;;110.93;51.83;;;;;;;;;;5101926;28;20075;-77
2021/03/24 03:39:21;;;;;;;95.07;50.78;;;;;;;;;;5104046;28;20040;-77
2021/03/24 03:41:48;;;;;;;85.45;50.60;;;;;;;;;;5103817;28;20039;-77
2021/03/24 03:44:15;;;;;;;83.53;51.40;;;;;;;;;;5104563;28;20028;-77
2021/03/24 03:46:54;;;;;;;153.32;52.30;;;;;;;;;;5087880;28;20036;-77
2021/03/24 03:49:20;;;;;;;80.40;49.33;;;;;;;;;;5105554;28;20035;-77
2021/03/24 03:52:23;;;;;;;83.82;53.22;;;;;;;;;;5087888;28;20039;-77
2021/03/24 03:55:11;;;;;;;80.90;50.28;;;;;;;;;;5098947;28;20072;-77
2021/03/24 03:57:43;;;;;;;84.47;49.55;;;;;;;;;;5099412;28;20451;-77
2021/03/24 04:00:12;;;;;;;92.93;51.28;;;;;;;;;;5099763;28;20114;-77
2021/03/24 04:02:45;;;;;;;90.32;50.95;;;;;;;;;;5100288;28;20489;-77
2021/03/24 04:05:17;;;;;;;85.32;49.45;;;;;;;;;;5101006;28;20039;-77
2021/03/24 04:07:53;;;;;;;84.32;48.85;;;;;;;;;;5100480;28;20520;-77
2021/03/24 04:10:21;;;;;;;81.07;47.90;;;;;;;;;;5100842;28;20039;-78
2021/03/24 04:12:46;;;;;;;87.57;50.22;;;;;;;;;;5079235;28;20040;-79
2021/03/24 04:15:18;;;;;;;102.72;51.97;;;;;;;;;;5080816;28;20086;-79
2021/03/24 04:17:50;;;;;;;86.32;51.28;;;;;;;;;;5081368;28;20033;-79
2021/03/24 04:20:19;;;;;;;86.85;50.85;;;;;;;;;;5080626;28;20047;-78
2021/03/24 04:22:47;;;;;;;96.57;51.03;;;;;;;;;;5078717;28;20054;-78
2021/03/24 04:25:22;;;;;;;87.43;49.10;;;;;;;;;;5060662;28;20028;-78
2021/03/24 04:27:49;;;;;;;74.13;47.78;;;;;;;;;;5077935;28;20115;-79
2021/03/24 04:30:21;;;;;;;81.78;49.90;;;;;;;;;;5077021;28;20033;-78
2021/03/24 04:32:47;;;;;;;73.65;47.22;;;;;;;;;;5077104;28;20060;-78
2021/03/24 04:35:16;;;;;;;76.75;47.42;;;;;;;;;;5059335;28;20099;-78
2021/03/24 04:37:47;;;;;;;80.05;49.60;;;;;;;;;;5076266;28;20033;-78
2021/03/24 04:40:28;;;;;;;82.57;49.00;;;;;;;;;;5075979;28;20509;-77
2021/03/24 04:43:09;;;;;;;74.70;46.40;;;;;;;;;;5091839;28;20032;-75
2021/03/24 04:45:41;;;;;;;83.68;51.25;;;;;;;;;;5095381;28;20074;-75
2021/03/24 04:48:20;;;;;;;83.95;49.95;;;;;;;;;;5096557;28;20047;-78
2021/03/24 04:51:02;;;;;;;78.65;48.08;;;;;;;;;;5079591;28;20040;-78
2021/03/24 04:53:35;;;;;;;75.03;47.65;;;;;;;;;;5078126;28;20518;-78
2021/03/24 04:56:01;;;;;;;71.50;47.45;;;;;;;;;;5096741;28;20036;-78
2021/03/24 04:58:31;;;;;;;72.30;45.72;;;;;;;;;;5078569;28;20032;-78
2021/03/24 05:01:06;;;;;;;78.57;46.88;;;;;;;;;;5096498;28;20413;-78
2021/03/24 05:03:41;;;;;;;78.32;48.53;;;;;;;;;;5096994;28;20417;-78
2021/03/24 05:06:35;;;;;;;76.43;47.45;;;;;;;;;;5078667;28;20038;-78
2021/03/24 05:09:04;;;;;;;84.80;48.58;;;;;;;;;;5086673;28;20055;-78
2021/03/24 05:11:32;;;;;;;85.28;50.03;;;;;;;;;;5096404;28;20035;-77
2021/03/24 05:14:05;;;;;;;83.90;48.55;;;;;;;;;;5095699;28;20108;-78
2021/03/24 05:16:36;;;;;;;77.88;47.17;;;;;;;;;;5096261;28;20085;-78
2021/03/24 05:19:02;;;;;;;77.38;46.33;;;;;;;;;;5078376;28;20043;-78
2021/03/24 05:21:46;;;;;;;80.38;50.38;;;;;;;;;;5096155;28;20031;-78
2021/03/24 05:24:17;;;;;;;75.85;48.35;;;;;;;;;;5095814;28;20024;-78
2021/03/24 05:26:47;;;;;;;93.60;47.50;;;;;;;;;;5095686;28;20122;-78
2021/03/24 05:29:18;;;;;;;74.57;46.00;;;;;;;;;;5095500;28;20039;-78
2021/03/24 05:31:47;;;;;;;93.95;47.30;;;;;;;;;;5095671;28;20032;-78
2021/03/24 05:34:13;;;;;;;71.07;45.95;;;;;;;;;;5077192;28;20040;-78
2021/03/24 05:36:44;;;;;;;152.82;49.30;;;;;;;;;;5077045;28;20132;-78
2021/03/24 05:39:31;;;;;;;71.13;46.58;;;;;;;;;;5095216;28;20047;-78
2021/03/24 05:42:26;;;;;;;;;;;;;;;;;;5095604;28;20058;-78
2021/03/24 05:45:29;;;;;;;79.07;46.92;;;;;;;;;;5083782;28;19912;-78
2021/03/24 05:48:06;;;;;;;118.38;50.80;;;;;;;;;;5094268;28;20027;-78
2021/03/24 05:51:16;;;;;;;83.72;49.42;;;;;;;;;;5076488;28;20040;-78
2021/03/24 05:54:07;;;;;;;127.85;53.78;;;;;;;;;;5077437;28;20117;-78
2021/03/24 05:56:33;;;;;;;263.52;58.15;;;;;;;;;;5076221;28;20111;-78
2021/03/24 05:59:16;;;;;;;120.05;50.85;;;;;;;;;;5093061;28;20197;-78
2021/03/24 06:01:52;;;;;;;87.93;53.25;;;;;;;;;;5094399;28;20035;-78
2021/03/24 06:04:47;;;;;;;79.90;49.30;;;;;;;;;;5076100;28;20536;-78
2021/03/24 06:07:39;;;;;;;130.48;52.67;;;;;;;;;;5094084;28;20122;-77
2021/03/24 06:10:38;;;;;;;233.07;53.95;;;;;;;;;;5094295;28;20032;-78
2021/03/24 06:13:24;;;;;;;194.40;51.85;;;;;;;;;;5072319;28;20047;-78
2021/03/24 06:16:07;;;;;;;88.53;49.70;;;;;;;;;;5039202;28;20053;-78
2021/03/24 06:18:45;;;;;;;85.43;48.88;;;;;;;;;;5056141;28;20055;-78
2021/03/24 06:21:39;;;;;;;128.45;54.28;;;;;;;;;;5056170;28;20054;-77
2021/03/24 06:24:04;;;;;;;484.48;64.72;;;;;;;;;;5073989;28;20048;-78
2021/03/24 06:26:39;;;;;;;423.30;56.88;;;;;;;;;;5074900;28;20070;-77
2021/03/24 06:29:41;;;;;;;204.88;55.63;;;;;;;;;;5074123;28;20032;-77
2021/03/24 06:32:24;;;;;;;319.55;71.05;;;;;;;;;;5057270;28;20043;-77
2021/03/24 06:35:18;;;;;;;507.05;114.32;;;;;;;;;;5073373;28;20111;-77
2021/03/24 06:37:46;;;;;;;490.48;71.43;;;;;;;;;;5054793;28;20040;-77
2021/03/24 06:40:33;;;;;;;492.83;96.78;;;;;;;;;;5073233;28;20032;-77
2021/03/24 06:43:17;;;;;;;;;;;;;;;;;;5074337;28;20041;-77
2021/03/24 06:46:07;;;;;;;186.57;78.55;;;;;;;;;;5093640;28;20006;-77
2021/03/24 06:48:49;;;;;;;109.57;54.97;;;;;;;;;;5095479;28;20090;-75
2021/03/24 06:51:33;;;;;;;89.65;49.47;;;;;;;;;;5092891;28;20044;-75
2021/03/24 06:54:11;;;;;;;96.82;47.75;;;;;;;;;;5075124;28;20028;-76
2021/03/24 06:57:04;;;;;;;115.45;47.88;;;;;;;;;;5075065;28;20397;-76
2021/03/24 07:00:08;;;;;;;93.07;50.17;;;;;;;;;;5058043;28;20028;-76
2021/03/24 07:03:15;;;;;;;248.18;47.58;;;;;;;;;;5093289;28;20417;-76
2021/03/24 07:06:05;;;;;;;388.17;48.25;;;;;;;;;;5093473;28;20446;-75
2021/03/24 07:08:44;;;;;;;348.50;50.72;;;;;;;;;;5075031;28;20036;-76
2021/03/24 07:11:18;;;;;;;80.20;43.53;;;;;;;;;;5094309;28;20036;-76
2021/03/24 07:14:38;;;;;;;73.35;43.17;;;;;;;;;;5074811;28;20041;-76
2021/03/24 07:17:22;;;;;;;82.05;41.72;;;;;;;;;;5042388;28;20386;-76
2021/03/24 07:20:15;;;;;;;82.10;41.92;;;;;;;;;;5086415;28;20043;-78
2021/03/24 07:23:17;;;;;;;71.53;43.97;;;;;;;;;;5084639;28;20081;-77
2021/03/24 07:25:46;;;;;;;252.32;46.13;;;;;;;;;;5103554;28;20028;-77
2021/03/24 07:28:28;;;;;;;232.75;48.63;;;;;;;;;;5090561;28;20062;-77
2021/03/24 07:31:12;;;;;;;74.22;44.00;;;;;;;;;;5092296;28;20039;-77
2021/03/24 07:33:49;;;;;;;360.23;47.90;;;;;;;;;;5108594;28;20064;-77
2021/03/24 07:36:38;;;;;;;297.45;47.25;;;;;;;;;;5104382;28;20028;-77
2021/03/24 07:39:23;;;;;;;279.40;51.00;;;;;;;;;;5107562;28;20032;-77
2021/03/24 07:42:11;;;;;;;76.22;43.88;;;;;;;;;;5067902;28;20040;-76
2021/03/24 07:45:00;;;;;;;108.30;47.35;;;;;;;;;;5103516;28;20036;-77
2021/03/24 07:47:41;;;;;;;140.80;46.75;;;;;;;;;;5070985;28;20131;-77
2021/03/24 07:50:33;;;;;;;81.50;47.35;;;;;;;;;;5070497;28;20043;-77
2021/03/24 07:53:22;;;;;;;114.93;46.53;;;;;;;;;;5086211;28;20092;-77
2021/03/24 07:56:15;;;;;;;80.10;45.17;;;;;;;;;;5084211;28;20048;-81
2021/03/24 07:58:44;;;;;;;131.18;48.15;;;;;;;;;;5102868;28;20039;-81
2021/03/24 08:01:52;;;;;;;93.82;49.38;;;;;;;;;;5095229;28;20544;-78
2021/03/24 08:04:36;;;;;;;88.10;50.92;;;;;;;;;;5100637;28;20066;-78
2021/03/24 08:07:29;;;;;;;89.15;49.50;;;;;;;;;;5083487;28;20058;-81
2021/03/24 08:10:17;;;;;;;234.70;54.45;;;;;;;;;;5079678;28;20054;-81
2021/03/24 08:12:56;;;;;;;88.40;48.67;;;;;;;;;;5082812;28;20043;-79
2021/03/24 08:15:29;;;;;;;177.88;50.38;;;;;;;;;;5085036;28;20952;-81
2021/03/24 08:18:27;;;;;;;73.97;45.05;;;;;;;;;;5106137;28;20619;-80
2021/03/24 08:21:00;;;;;;;77.63;46.17;;;;;;;;;;5097418;28;20043;-76
2021/03/24 08:23:46;;;;;;;78.05;45.70;;;;;;;;;;5082538;28;20043;-76
2021/03/24 08:26:49;;;;;;;74.30;45.77;;;;;;;;;;5099411;28;20044;-75
2021/03/24 08:29:44;;;;;;;68.45;43.45;;;;;;;;;;5092041;28;20041;-75
2021/03/24 08:32:15;;;;;;;70.25;43.90;;;;;;;;;;5096146;28;20043;-74
2021/03/24 08:35:16;;;;;;;76.90;45.15;;;;;;;;;;5077432;28;20036;-75
2021/03/24 08:38:05;;;;;;;80.43;47.90;;;;;;;;;;5061760;28;20482;-74
2021/03/24 08:41:04;;;;;;;74.55;46.22;;;;;;;;;;5094057;28;20046;-76
2021/03/24 08:43:43;;;;;;;78.45;48.95;;;;;;;;;;5094309;28;20115;-76
2021/03/24 08:46:17;;;;;;;74.30;45.80;;;;;;;;;;5096132;28;20547;-76
2021/03/24 08:48:58;;;;;;;79.47;47.85;;;;;;;;;;5077494;28;20043;-76
2021/03/24 08:51:51;;;;;;;81.88;49.03;;;;;;;;;;5096122;28;20109;-76
2021/03/24 08:54:49;;;;;;;77.28;47.90;;;;;;;;;;5097128;28;20040;-76
2021/03/24 08:57:53;;;;;;;79.95;48.67;;;;;;;;;;5094368;28;20096;-85
2021/03/24 09:00:33;;;;;;;77.82;48.03;;;;;;;;;;5059127;28;20063;-80
2021/03/24 09:03:38;;;;;;;70.78;45.58;;;;;;;;;;5096938;28;20028;-79
2021/03/24 09:06:16;;;;;;;74.43;46.20;;;;;;;;;;5081135;28;20038;-77
2021/03/24 09:08:46;;;;;;;67.97;42.22;;;;;;;;;;5103698;28;20107;-78
2021/03/24 09:11:45;;;;;;;63.10;41.92;;;;;;;;;;5106013;28;20062;-77
2021/03/24 09:14:28;;;;;;;68.32;42.97;;;;;;;;;;5106709;28;20023;-78
2021/03/24 09:17:16;;;;;;;64.85;43.00;;;;;;;;;;5105235;28;20424;-79
2021/03/24 09:20:19;;;;;;;58.45;40.72;;;;;;;;;;5097020;28;20062;-78
2021/03/24 09:23:02;;;;;;;65.10;43.03;;;;;;;;;;5096053;28;20489;-78
2021/03/24 09:25:45;;;;;;;67.75;44.33;;;;;;;;;;5094695;28;20064;-78
2021/03/24 09:28:36;;;;;;;61.50;42.97;;;;;;;;;;5074880;28;20040;-77
2021/03/24 09:31:01;;;;;;;62.65;43.90;;;;;;;;;;5094786;28;20050;-77
2021/03/24 09:33:35;;;;;;;64.43;43.65;;;;;;;;;;5093749;28;20430;-78
2021/03/24 09:36:37;;;;;;;56.45;39.90;;;;;;;;;;5076241;28;20040;-77
2021/03/24 09:39:16;;;;;;;58.83;39.78;;;;;;;;;;5076300;28;20132;-78
2021/03/24 09:41:53;;;;;;;54.97;39.33;;;;;;;;;;5094614;28;20042;-77
2021/03/24 09:44:34;;;;;;;50.95;34.90;;;;;;;;;;5094722;28;20032;-77
2021/03/24 09:47:00;;;;;;;49.65;35.78;;;;;;;;;;5076222;28;20040;-77
2021/03/24 09:49:32;;;;;;;52.20;33.35;;;;;;;;;;5094435;28;20042;-77
2021/03/24 09:52:25;;;;;;;43.40;32.20;;;;;;;;;;5076309;28;20046;-77
2021/03/24 09:55:01;;;;;;;46.83;33.17;;;;;;;;;;5075809;28;20040;-77
2021/03/24 09:57:45;;;;;;;43.97;31.20;;;;;;;;;;5075646;28;20043;-77
2021/03/24 10:00:14;;;;;;;41.80;29.45;;;;;;;;;;5094270;28;20036;-77
2021/03/24 10:02:59;;;;;;;45.60;32.30;;;;;;;;;;5075938;28;20040;-77
2021/03/24 10:05:49;;;;;;;42.33;30.95;;;;;;;;;;5094017;28;20180;-77
2021/03/24 10:08:18;;;;;;;41.65;28.33;;;;;;;;;;5094188;28;20047;-78
2021/03/24 10:10:46;;;;;;;46.53;30.63;;;;;;;;;;5089943;28;20031;-77
2021/03/24 10:13:27;;;;;;;40.72;29.33;;;;;;;;;;5113959;28;20138;-77
2021/03/24 10:16:01;;;;;;;42.05;29.05;;;;;;;;;;5113949;28;20047;-77
2021/03/24 10:18:36;;;;;;;47.85;30.77;;;;;;;;;;5114215;28;20036;-77
2021/03/24 10:21:15;;;;;;;48.80;32.55;;;;;;;;;;5114111;28;20121;-77
2021/03/24 10:24:07;;;;;;;43.35;29.80;;;;;;;;;;5114063;28;20039;-77
2021/03/24 10:27:06;;;;;;;40.63;27.95;;;;;;;;;;5113426;28;20038;-77
2021/03/24 10:29:39;;;;;;;40.53;29.60;;;;;;;;;;5113992;28;20035;-77
2021/03/24 10:32:18;;;;;;;43.47;27.30;;;;;;;;;;5095819;28;20047;-77
2021/03/24 10:34:47;;;;;;;36.22;25.45;;;;;;;;;;5113858;28;20032;-77
2021/03/24 10:37:41;;;;;;;36.15;26.50;;;;;;;;;;5095398;28;20034;-77
2021/03/24 10:40:20;;;;;;;39.95;28.80;;;;;;;;;;5113257;28;20058;-77
2021/03/24 10:43:01;;;;;;;38.13;26.90;;;;;;;;;;5113428;28;20470;-77
2021/03/24 10:45:32;;;;;;;39.58;28.42;;;;;;;;;;5113602;28;20103;-77
2021/03/24 10:48:25;;;;;;;39.95;26.55;;;;;;;;;;5113986;28;20126;-77
2021/03/24 10:51:05;;;;;;;42.53;29.02;;;;;;;;;;5113756;28;20031;-77
2021/03/24 10:53:33;;;;;;;45.00;28.75;;;;;;;;;;5095405;28;20484;-77
2021/03/24 10:56:35;;;;;;;42.80;28.92;;;;;;;;;;5113150;28;20050;-77
2021/03/24 10:59:49;;;;;;;41.25;28.13;;;;;;;;;;5095512;28;20043;-78
2021/03/24 11:02:23;;;;;;;38.70;26.77;;;;;;;;;;5079309;28;20051;-77
2021/03/24 11:04:55;;;;;;;39.90;27.80;;;;;;;;;;5095603;28;20023;-77
2021/03/24 11:07:28;;;;;;;39.58;26.42;;;;;;;;;;5095547;28;20058;-77
2021/03/24 11:10:16;;;;;;;49.60;29.02;;;;;;;;;;5092186;28;20543;-77
2021/03/24 11:13:07;;;;;;;40.28;26.77;;;;;;;;;;5093277;28;20032;-77
2021/03/24 11:15:40;;;;;;;38.17;25.00;;;;;;;;;;5092988;28;20040;-77
2021/03/24 11:18:09;;;;;;;35.47;22.88;;;;;;;;;;5058546;28;20032;-77
2021/03/24 11:20:44;;;;;;;40.78;25.42;;;;;;;;;;5075227;28;20052;-77
2021/03/24 11:23:12;;;;;;;41.63;25.70;;;;;;;;;;5093379;28;20067;-77
2021/03/24 11:26:02;;;;;;;36.60;23.42;;;;;;;;;;5093098;28;20028;-77
2021/03/24 11:28:34;;;;;;;38.22;23.42;;;;;;;;;;5093089;28;20032;-77
2021/03/24 11:31:11;;;;;;;39.13;23.08;;;;;;;;;;5093103;28;20032;-78
2021/03/24 11:33:47;;;;;;;34.95;22.38;;;;;;;;;;5093066;28;20036;-77
2021/03/24 11:36:25;;;;;;;32.13;20.90;;;;;;;;;;5093056;28;20036;-77
2021/03/24 11:39:12;;;;;;;28.90;18.25;;;;;;;;;;5094096;28;20067;-77
2021/03/24 11:41:39;;;;;;;30.52;18.63;;;;;;;;;;5078046;28;20027;-77
2021/03/24 11:44:10;;;;;;;31.45;19.13;;;;;;;;;;5112604;28;20027;-77
2021/03/24 11:46:57;;;;;;;34.58;21.13;;;;;;;;;;5094946;28;20035;-77
2021/03/24 11:49:34;;;;;;;31.50;18.73;;;;;;;;;;5095113;28;20045;-77
2021/03/24 11:52:21;;;;;;;32.83;21.23;;;;;;;;;;5095031;28;20027;-77
2021/03/24 11:54:46;;;;;;;36.05;22.67;;;;;;;;;;5113163;28;20032;-77
2021/03/24 11:57:15;;;;;;;30.83;19.30;;;;;;;;;;5113988;28;20466;-77
2021/03/24 11:59:51;;;;;;;36.83;21.90;;;;;;;;;;5116769;28;20035;-77
2021/03/24 12:02:21;;;;;;;36.03;22.67;;;;;;;;;;5116589;28;20039;-77
2021/03/24 12:05:10;;;;;;;28.95;19.90;;;;;;;;;;5116860;28;20038;-77
2021/03/24 12:07:49;;;;;;;31.52;20.58;;;;;;;;;;5116402;28;20055;-77
2021/03/24 12:10:30;;;;;;;28.15;19.05;;;;;;;;;;5115568;28;20041;-77
2021/03/24 12:13:01;;;;;;;32.00;20.95;;;;;;;;;;5094317;28;20351;-77
2021/03/24 12:15:31;;;;;;;39.42;22.42;;;;;;;;;;5095573;28;20063;-77
2021/03/24 12:18:14;;;;;;;40.25;24.13;;;;;;;;;;5096202;28;20036;-77
2021/03/24 12:20:51;;;;;;;35.97;22.58;;;;;;;;;;5077816;28;20185;-77
2021/03/24 12:23:16;;;;;;;32.28;22.38;;;;;;;;;;5077961;28;20044;-77
2021/03/24 12:25:48;;;;;;;37.92;23.58;;;;;;;;;;5095860;28;20043;-77
2021/03/24 12:28:13;;;;;;;35.53;21.98;;;;;;;;;;5095609;28;20031;-77
2021/03/24 12:30:47;;;;;;;30.73;21.58;;;;;;;;;;5095812;28;20036;-77
2021/03/24 12:33:16;;;;;;;27.65;17.40;;;;;;;;;;5095972;28;20042;-77
2021/03/24 12:35:47;;;;;;;29.60;19.30;;;;;;;;;;5095583;28;20036;-77
2021/03/24 12:38:15;;;;;;;30.25;20.90;;;;;;;;;;5095476;28;20040;-77
2021/03/24 12:40:49;;;;;;;30.83;21.27;;;;;;;;;;5099288;28;20480;-77
2021/03/24 12:43:31;;;;;;;33.88;22.65;;;;;;;;;;5115818;28;20043;-77
2021/03/24 12:46:19;;;;;;;28.05;18.00;;;;;;;;;;5080744;28;20039;-77
2021/03/24 12:48:56;;;;;;;27.02;18.85;;;;;;;;;;5115985;28;20450;-77
2021/03/24 12:51:46;;;;;;;30.35;18.92;;;;;;;;;;5115617;28;20038;-77
2021/03/24 12:54:12;;;;;;;27.00;17.67;;;;;;;;;;5115259;28;20040;-77
2021/03/24 12:57:02;;;;;;;27.63;17.85;;;;;;;;;;5115395;28;20035;-77
2021/03/24 13:00:02;;;;;;;25.40;17.15;;;;;;;;;;5115758;28;20050;-77
2021/03/24 13:02:39;;;;;;;24.40;15.93;;;;;;;;;;5115322;28;20051;-77
2021/03/24 13:05:26;;;;;;;24.92;16.13;;;;;;;;;;5115524;28;20047;-77
2021/03/24 13:07:57;;;;;;;23.05;15.77;;;;;;;;;;5097172;28;20070;-77
2021/03/24 13:10:53;;;;;;;26.52;16.13;;;;;;;;;;5115296;28;20036;-77
2021/03/24 13:13:36;;;;;;;22.98;16.25;;;;;;;;;;5115324;28;20496;-77
2021/03/24 13:16:05;;;;;;;24.52;16.45;;;;;;;;;;5116829;28;20039;-78
2021/03/24 13:18:44;;;;;;;26.38;16.02;;;;;;;;;;5099488;28;20045;-76
2021/03/24 13:21:23;;;;;;;22.98;14.82;;;;;;;;;;5117941;28;20042;-77
2021/03/24 13:24:28;;;;;;;21.70;14.27;;;;;;;;;;5121230;28;20038;-78
2021/03/24 13:27:04;;;;;;;24.02;17.27;;;;;;;;;;5091686;28;20114;-78
2021/03/24 13:29:46;;;;;;;23.95;16.10;;;;;;;;;;5102003;28;20143;-77
2021/03/24 13:32:24;;;;;;;21.92;14.13;;;;;;;;;;5117644;28;20035;-78
2021/03/24 13:35:15;;;;;;;27.08;15.55;;;;;;;;;;5116543;28;20062;-77
2021/03/24 13:37:40;;;;;;;22.73;16.25;;;;;;;;;;5114948;28;20023;-78
2021/03/24 13:40:18;;;;;;;30.13;16.13;;;;;;;;;;5118133;28;20130;-76
2021/03/24 13:42:50;;;;;;;24.80;15.45;;;;;;;;;;5118411;28;20036;-77
2021/03/24 13:45:19;;;;;;;23.65;15.20;;;;;;;;;;5116850;28;20031;-76
2021/03/24 13:48:14;;;;;;;20.65;13.82;;;;;;;;;;5115572;28;20043;-79
2021/03/24 13:50:44;;;;;;;27.30;15.25;;;;;;;;;;5115417;28;20054;-79
2021/03/24 13:53:56;;;;;;;21.23;14.57;;;;;;;;;;5096737;28;20058;-75
2021/03/24 13:56:54;;;;;;;24.77;14.77;;;;;;;;;;5114608;28;20078;-76
2021/03/24 13:59:27;;;;;;;23.13;14.90;;;;;;;;;;5114547;28;20027;-76
2021/03/24 14:02:12;;;;;;;21.92;14.88;;;;;;;;;;5096579;28;20036;-76
2021/03/24 14:04:37;;;;;;;18.58;13.00;;;;;;;;;;5114081;28;20028;-75
2021/03/24 14:07:25;;;;;;;25.00;13.23;;;;;;;;;;5114848;28;20510;-77
2021/03/24 14:10:09;;;;;;;25.38;14.45;;;;;;;;;;5116926;28;20039;-80
2021/03/24 14:13:02;;;;;;;26.05;15.75;;;;;;;;;;5100539;28;20386;-80
2021/03/24 14:15:46;;;;;;;23.90;14.88;;;;;;;;;;5118714;28;20036;-80
2021/03/24 14:18:33;;;;;;;24.00;14.57;;;;;;;;;;5118971;28;20040;-79
2021/03/24 14:21:11;;;;;;;23.67;13.60;;;;;;;;;;5114565;28;20032;-78
2021/03/24 14:23:51;;;;;;;20.23;13.43;;;;;;;;;;5115545;28;20389;-76
2021/03/24 14:26:26;;;;;;;26.05;13.40;;;;;;;;;;5113221;28;20366;-75
2021/03/24 14:29:13;;;;;;;22.05;14.25;;;;;;;;;;5114080;28;20465;-75
2021/03/24 14:31:54;;;;;;;20.38;12.68;;;;;;;;;;5113828;28;20040;-76
2021/03/24 14:34:34;;;;;;;19.33;11.73;;;;;;;;;;5113924;28;20028;-75
2021/03/24 14:37:00;;;;;;;23.40;12.48;;;;;;;;;;5113481;28;20043;-76
2021/03/24 14:39:37;;;;;;;26.10;14.80;;;;;;;;;;5091335;28;20054;-76
2021/03/24 14:42:18;;;;;;;18.58;13.02;;;;;;;;;;5075252;28;20446;-76
2021/03/24 14:45:11;;;;;;;21.40;12.98;;;;;;;;;;5075532;28;20088;-76
2021/03/24 14:48:10;;;;;;;20.73;13.55;;;;;;;;;;5093451;28;20081;-76
2021/03/24 14:50:52;;;;;;;26.35;15.75;;;;;;;;;;5093341;28;20054;-75
2021/03/24 14:53:20;;;;;;;23.13;15.38;;;;;;;;;;5093113;28;20118;-76
2021/03/24 14:55:46;;;;;;;22.60;13.43;;;;;;;;;;5093001;28;20493;-76
2021/03/24 14:58:14;;;;;;;19.08;13.40;;;;;;;;;;5093275;28;20048;-75
2021/03/24 15:00:40;;;;;;;20.95;12.18;;;;;;;;;;5075103;28;20047;-76
2021/03/24 15:03:23;;;;;;;18.90;12.10;;;;;;;;;;5093090;28;20032;-75
2021/03/24 15:05:56;;;;;;;19.45;12.80;;;;;;;;;;5075037;28;20032;-76
2021/03/24 15:08:27;;;;;;;26.77;14.52;;;;;;;;;;5093105;28;20040;-75
2021/03/24 15:11:01;;;;;;;20.52;12.10;;;;;;;;;;5111727;28;20118;-75
2021/03/24 15:13:38;;;;;;;21.17;13.57;;;;;;;;;;5113286;28;20074;-75
2021/03/24 15:16:22;;;;;;;20.05;12.57;;;;;;;;;;5113117;28;20042;-76